Time;durP1;ratioP1;P1;durP2;ratioP2;P2;SDS_P1;SDS_P2;PMS_P1;PMS_P2;Temp;Humidity;BMP_temperature;BMP_pressure;BME280_temperature;BME280_humidity;BME280_pressure;Samples;Min_cycle;Max_cycle;Signal;HPM_P1;HPM_P2
2022/07/12 00:01:25;;;;;;;6.32;4.65;;;;;;;15.41;95.36;102326.66;4858708;29;20509;-66
2022/07/12 00:03:50;;;;;;;5.45;4.55;;;;;;;15.37;95.37;102328.06;4875149;29;20107;-66
2022/07/12 00:06:15;;;;;;;6.45;4.93;;;;;;;15.35;95.61;102322.84;4875335;29;20075;-65
2022/07/12 00:08:41;;;;;;;9.00;5.88;;;;;;;15.32;95.83;102329.44;4875347;29;20116;-66
2022/07/12 00:11:06;;;;;;;8.45;5.43;;;;;;;15.29;94.51;102329.84;4875353;29;20033;-66
2022/07/12 00:13:32;;;;;;;10.27;5.57;;;;;;;15.24;94.23;102324.19;4875196;29;20037;-66
2022/07/12 00:15:58;;;;;;;7.97;4.97;;;;;;;15.18;94.66;102311.53;4875066;29;20029;-66
2022/07/12 00:18:24;;;;;;;7.13;5.30;;;;;;;15.17;95.38;102312.56;4875185;29;20092;-66
2022/07/12 00:20:50;;;;;;;8.32;5.65;;;;;;;15.17;94.99;102323.31;4875236;29;20047;-65
2022/07/12 00:23:16;;;;;;;6.38;4.45;;;;;;;15.15;93.96;102325.38;4858435;29;20477;-66
2022/07/12 00:25:42;;;;;;;13.82;4.85;;;;;;;15.12;92.79;102317.69;4875289;29;20036;-65
2022/07/12 00:28:08;;;;;;;9.02;4.65;;;;;;;15.15;92.70;102324.53;4875102;29;20496;-66
2022/07/12 00:30:33;;;;;;;11.75;5.50;;;;;;;15.15;92.26;102321.84;4878206;29;20105;-66
2022/07/12 00:32:58;;;;;;;9.60;4.63;;;;;;;15.11;92.04;102319.53;4878658;29;20397;-65
2022/07/12 00:35:24;;;;;;;8.07;5.05;;;;;;;15.11;92.50;102316.84;4878609;29;20061;-66
2022/07/12 00:37:49;;;;;;;11.48;4.90;;;;;;;15.09;92.46;102312.66;4878569;29;20029;-66
2022/07/12 00:40:15;;;;;;;8.05;4.78;;;;;;;15.07;92.27;102312.06;4878525;29;20045;-66
2022/07/12 00:42:40;;;;;;;6.25;4.10;;;;;;;15.05;92.47;102308.72;4878376;29;20485;-66
2022/07/12 00:45:07;;;;;;;6.88;4.65;;;;;;;15.03;94.07;102308.91;4878367;29;20051;-66
2022/07/12 00:47:36;;;;;;;6.38;5.10;;;;;;;14.96;94.64;102308.00;4878441;29;20029;-71
2022/07/12 00:50:06;;;;;;;6.70;4.97;;;;;;;14.94;94.53;102307.38;4878473;29;20028;-70
2022/07/12 00:52:32;;;;;;;7.35;4.97;;;;;;;14.89;94.72;102305.25;4878167;29;20156;-70
2022/07/12 00:54:57;;;;;;;8.85;5.38;;;;;;;14.84;94.99;102302.28;4878369;29;20056;-70
2022/07/12 00:57:22;;;;;;;8.00;4.57;;;;;;;14.81;95.51;102304.53;4878145;29;20037;-70
2022/07/12 00:59:48;;;;;;;6.20;4.93;;;;;;;14.80;96.00;102303.69;4878051;29;20076;-70
2022/07/12 01:02:13;;;;;;;7.35;5.00;;;;;;;14.82;95.93;102298.94;4878123;29;20033;-70
2022/07/12 01:04:39;;;;;;;8.07;4.60;;;;;;;14.79;96.06;102310.06;4879897;29;20065;-71
2022/07/12 01:07:05;;;;;;;6.93;5.10;;;;;;;14.80;96.09;102308.22;4877994;29;20141;-71
2022/07/12 01:09:30;;;;;;;6.35;4.90;;;;;;;14.76;95.67;102306.94;4877982;29;20029;-70
2022/07/12 01:11:56;;;;;;;7.15;4.30;;;;;;;14.71;94.47;102304.81;4878017;29;20064;-71
2022/07/12 01:14:21;;;;;;;6.82;4.88;;;;;;;14.75;93.33;102316.88;4877943;29;20045;-70
2022/07/12 01:16:48;;;;;;;9.35;4.55;;;;;;;14.70;93.23;102316.59;4877941;29;20037;-70
2022/07/12 01:19:20;;;;;;;8.10;4.43;;;;;;;14.64;94.24;102314.63;4877630;29;20528;-70
2022/07/12 01:21:46;;;;;;;8.25;4.53;;;;;;;14.62;93.20;102316.72;4862098;29;20040;-70
2022/07/12 01:24:13;;;;;;;8.07;4.85;;;;;;;14.58;92.27;102315.41;4877781;29;20045;-70
2022/07/12 01:26:38;;;;;;;5.85;4.22;;;;;;;14.54;93.21;102309.59;4877704;29;20040;-70
2022/07/12 01:29:06;;;;;;;6.97;4.78;;;;;;;14.56;93.38;102322.81;4877904;29;20037;-70
2022/07/12 01:31:34;;;;;;;6.82;4.65;;;;;;;14.59;93.47;102330.47;4877519;29;20508;-71
2022/07/12 01:34:00;;;;;;;6.82;5.15;;;;;;;14.59;93.71;102339.38;4877614;29;20029;-71
2022/07/12 01:36:25;;;;;;;8.68;4.88;;;;;;;14.54;94.32;102335.56;4877665;29;20500;-70
2022/07/12 01:38:50;;;;;;;8.88;5.90;;;;;;;14.45;94.13;102346.38;4877422;29;20041;-70
2022/07/12 01:41:16;;;;;;;6.88;4.50;;;;;;;14.37;94.37;102345.66;4877125;29;20032;-70
2022/07/12 01:43:42;;;;;;;6.15;4.38;;;;;;;14.27;95.10;102350.47;4877510;29;20036;-70
2022/07/12 01:46:07;;;;;;;6.55;5.10;;;;;;;14.19;96.52;102351.38;4877572;29;20064;-70
2022/07/12 01:48:32;;;;;;;6.43;4.57;;;;;;;14.17;97.18;102345.34;4877409;29;20068;-71
2022/07/12 01:50:58;;;;;;;5.75;4.50;;;;;;;14.11;97.35;102343.41;4877408;29;20112;-70
2022/07/12 01:53:23;;;;;;;7.75;5.40;;;;;;;14.15;97.68;102350.09;4877329;29;20033;-70
2022/07/12 01:55:49;;;;;;;7.38;4.50;;;;;;;14.15;97.37;102352.78;4877187;29;20091;-70
2022/07/12 01:58:16;;;;;;;5.60;4.45;;;;;;;14.13;97.30;102350.25;4877046;29;20033;-70
2022/07/12 02:00:42;;;;;;;7.20;4.80;;;;;;;14.12;97.01;102347.75;4876975;29;20094;-70
2022/07/12 02:03:07;;;;;;;7.55;4.97;;;;;;;14.07;96.71;102344.78;4876789;29;20041;-70
2022/07/12 02:05:33;;;;;;;7.82;4.35;;;;;;;14.00;96.52;102333.97;4877412;29;20065;-70
2022/07/12 02:07:58;;;;;;;5.68;4.45;;;;;;;14.01;96.33;102343.66;4877663;29;20509;-70
2022/07/12 02:10:24;;;;;;;7.75;5.70;;;;;;;13.98;96.80;102336.81;4876943;29;20048;-70
2022/07/12 02:12:49;;;;;;;5.80;4.40;;;;;;;13.95;96.44;102333.69;4876847;29;20036;-70
2022/07/12 02:15:14;;;;;;;7.13;4.43;;;;;;;13.91;96.58;102335.91;4876922;29;20048;-71
2022/07/12 02:17:40;;;;;;;7.60;4.88;;;;;;;13.88;97.25;102328.19;4876749;29;20632;-70
2022/07/12 02:20:06;;;;;;;7.25;4.43;;;;;;;13.93;97.42;102323.13;4876534;29;20032;-70
2022/07/12 02:22:31;;;;;;;7.25;5.50;;;;;;;13.99;96.74;102316.19;4876564;29;20033;-71
2022/07/12 02:24:56;;;;;;;9.05;5.07;;;;;;;13.98;95.12;102319.91;4876682;29;20559;-70
2022/07/12 02:27:22;;;;;;;6.63;4.90;;;;;;;13.95;94.81;102313.03;4876743;29;20358;-70
2022/07/12 02:29:47;;;;;;;5.50;4.38;;;;;;;13.95;94.76;102321.09;4876652;29;20040;-70
2022/07/12 02:32:13;;;;;;;9.57;4.88;;;;;;;13.91;95.47;102319.81;4876824;29;20036;-70
2022/07/12 02:34:39;;;;;;;9.45;5.30;;;;;;;13.85;95.76;102330.41;4876664;29;20040;-70
2022/07/12 02:37:04;;;;;;;8.80;4.63;;;;;;;13.80;95.14;102321.06;4876666;29;20093;-70
2022/07/12 02:39:29;;;;;;;7.78;5.20;;;;;;;13.76;94.31;102318.94;4876421;29;20119;-70
2022/07/12 02:41:55;;;;;;;7.47;5.30;;;;;;;13.72;95.55;102320.31;4876489;29;20036;-70
2022/07/12 02:44:20;;;;;;;10.85;5.40;;;;;;;13.71;96.33;102315.97;4876646;29;20408;-70
2022/07/12 02:46:46;;;;;;;10.68;4.90;;;;;;;13.70;96.22;102316.97;4876231;29;21043;-71
2022/07/12 02:49:11;;;;;;;10.15;4.90;;;;;;;13.69;95.55;102320.69;4876372;29;20036;-70
2022/07/12 02:51:36;;;;;;;10.23;4.72;;;;;;;13.71;95.87;102324.84;4875540;29;20037;-70
2022/07/12 02:54:02;;;;;;;6.30;4.32;;;;;;;13.75;95.69;102328.84;4876040;29;20036;-71
2022/07/12 02:56:27;;;;;;;7.40;5.03;;;;;;;13.78;95.61;102332.97;4875888;29;20084;-70
2022/07/12 02:58:52;;;;;;;8.85;4.90;;;;;;;13.73;95.43;102333.56;4875612;29;20040;-70
2022/07/12 03:01:18;;;;;;;10.90;4.82;;;;;;;13.63;95.47;102334.81;4876077;29;20155;-70
2022/07/12 03:03:43;;;;;;;5.60;4.20;;;;;;;13.52;95.54;102328.88;4875942;29;20090;-70
2022/07/12 03:06:09;;;;;;;7.65;4.68;;;;;;;13.51;96.18;102326.34;4875736;29;20029;-70
2022/07/12 03:08:34;;;;;;;9.07;5.47;;;;;;;13.48;96.34;102321.34;4875614;29;20033;-71
2022/07/12 03:10:59;;;;;;;8.27;4.72;;;;;;;13.50;96.00;102325.53;4875712;29;20381;-71
2022/07/12 03:13:25;;;;;;;8.75;4.65;;;;;;;13.51;95.96;102329.03;4875731;29;20048;-71
2022/07/12 03:15:50;;;;;;;8.25;4.65;;;;;;;13.49;96.54;102326.53;4875591;29;20041;-71
2022/07/12 03:18:17;;;;;;;6.88;4.28;;;;;;;13.46;96.38;102324.19;4875455;29;20083;-71
2022/07/12 03:20:42;;;;;;;7.32;4.47;;;;;;;13.46;96.31;102323.38;4875409;29;20667;-70
2022/07/12 03:23:08;;;;;;;8.63;4.97;;;;;;;13.47;96.37;102325.06;4875348;29;20040;-70
2022/07/12 03:25:33;;;;;;;9.52;5.68;;;;;;;13.44;96.52;102312.84;4875337;29;20381;-71
2022/07/12 03:27:59;;;;;;;7.50;5.15;;;;;;;13.49;96.51;102321.19;4873027;29;20101;-70
2022/07/12 03:30:25;;;;;;;7.47;4.70;;;;;;;13.47;96.49;102325.06;4875755;29;20036;-71
2022/07/12 03:32:50;;;;;;;6.72;4.47;;;;;;;13.45;95.76;102324.41;4875705;29;20041;-70
2022/07/12 03:35:15;;;;;;;9.65;4.47;;;;;;;13.44;95.11;102333.44;4875724;29;20033;-70
2022/07/12 03:37:49;;;;;;;5.97;4.25;;;;;;;13.41;94.38;102331.13;4875714;29;20123;-71
2022/07/12 03:40:15;;;;;;;6.43;4.45;;;;;;;13.35;94.06;102322.78;4875235;29;20029;-71
2022/07/12 03:42:42;;;;;;;7.95;4.93;;;;;;;13.30;95.61;102311.75;4875661;29;20116;-71
2022/07/12 03:45:07;;;;;;;6.20;4.93;;;;;;;13.30;96.11;102318.97;4874790;29;20041;-71
2022/07/12 03:47:37;;;;;;;6.20;4.57;;;;;;;13.33;96.16;102321.28;4875042;29;20495;-71
2022/07/12 03:50:07;;;;;;;5.57;4.18;;;;;;;13.35;95.76;102319.28;4875321;29;20493;-70
2022/07/12 03:52:33;;;;;;;6.05;4.80;;;;;;;13.39;95.92;102328.63;4875119;29;20974;-71
2022/07/12 03:54:59;;;;;;;12.05;5.47;;;;;;;13.40;95.51;102324.09;4875005;29;20048;-70
2022/07/12 03:57:26;;;;;;;6.20;4.15;;;;;;;13.38;95.43;102327.78;4875000;29;20037;-71
2022/07/12 03:59:51;;;;;;;7.47;4.68;;;;;;;13.37;95.72;102331.47;4874900;29;20029;-71
2022/07/12 04:02:17;;;;;;;6.78;4.40;;;;;;;13.29;96.26;102317.31;4875058;29;20133;-71
2022/07/12 04:04:42;;;;;;;8.25;5.18;;;;;;;13.40;96.01;102330.28;4878102;29;20048;-66
2022/07/12 04:07:08;;;;;;;7.97;5.50;;;;;;;13.37;96.21;102326.13;4878881;29;20037;-66
2022/07/12 04:09:33;;;;;;;7.90;6.18;;;;;;;13.31;96.83;102315.31;4878810;29;20919;-66
2022/07/12 04:11:59;;;;;;;10.40;6.65;;;;;;;13.35;97.44;102316.59;4878828;29;20036;-66
2022/07/12 04:14:24;;;;;;;12.02;7.50;;;;;;;13.40;98.03;102318.75;4878744;29;20557;-66
2022/07/12 04:16:49;;;;;;;12.05;6.88;;;;;;;13.45;97.87;102317.19;4878722;29;20029;-66
2022/07/12 04:19:15;;;;;;;9.40;5.55;;;;;;;13.50;96.91;102324.69;4872433;29;20405;-66
2022/07/12 04:21:40;;;;;;;10.75;6.00;;;;;;;13.53;96.07;102311.75;4878618;29;20045;-66
2022/07/12 04:24:06;;;;;;;10.27;5.75;;;;;;;13.59;95.79;102321.75;4862236;29;20029;-66
2022/07/12 04:26:32;;;;;;;8.75;5.07;;;;;;;13.56;95.65;102322.13;4878613;29;20041;-66
2022/07/12 04:28:57;;;;;;;12.65;6.68;;;;;;;13.56;96.41;102321.28;4878559;29;20056;-66
2022/07/12 04:31:23;;;;;;;10.40;6.60;;;;;;;13.61;96.50;102328.78;4878536;29;20040;-66
2022/07/12 04:33:49;;;;;;;9.25;5.72;;;;;;;13.66;96.67;102334.44;4879334;29;20384;-66
2022/07/12 04:36:14;;;;;;;15.15;7.15;;;;;;;13.65;97.21;102333.63;4881914;29;20036;-66
2022/07/12 04:38:39;;;;;;;9.82;6.00;;;;;;;13.74;97.71;102345.09;4878736;29;20040;-66
2022/07/12 04:41:05;;;;;;;11.98;7.50;;;;;;;13.80;98.05;102339.84;4878337;29;20044;-66
2022/07/12 04:43:30;;;;;;;17.45;9.57;;;;;;;13.94;98.36;102351.63;4878373;29;20033;-66
2022/07/12 04:45:56;;;;;;;23.23;9.57;;;;;;;14.07;98.17;102348.31;4877769;29;20061;-66
2022/07/12 04:48:21;;;;;;;19.52;9.93;;;;;;;14.26;98.19;102341.59;4878231;29;20112;-66
2022/07/12 04:50:47;;;;;;;17.25;9.32;;;;;;;14.47;97.71;102352.41;4878088;29;20029;-66
2022/07/12 04:53:12;;;;;;;20.20;10.68;;;;;;;14.54;98.77;102338.25;4878504;29;20385;-66
2022/07/12 04:55:37;;;;;;;23.75;11.10;;;;;;;14.60;99.05;102342.91;4878227;29;20481;-65
2022/07/12 04:58:04;;;;;;;15.88;10.63;;;;;;;14.64;98.86;102334.25;4878046;29;20055;-66
2022/07/12 05:00:29;;;;;;;23.88;11.70;;;;;;;14.73;99.12;102329.66;4877937;29;20037;-66
2022/07/12 05:02:55;;;;;;;20.85;13.43;;;;;;;14.79;98.89;102334.25;4878128;29;20555;-66
2022/07/12 05:05:21;;;;;;;20.80;16.17;;;;;;;14.93;98.53;102335.22;4895646;29;20060;-66
2022/07/12 05:07:46;;;;;;;22.13;16.85;;;;;;;15.08;98.81;102335.19;4896603;29;20039;-66
2022/07/12 05:10:11;;;;;;;22.83;17.10;;;;;;;15.20;98.31;102341.75;4896781;29;20029;-66
2022/07/12 05:12:37;;;;;;;22.58;19.13;;;;;;;15.31;98.62;102335.88;4896709;29;20465;-66
2022/07/12 05:15:04;;;;;;;23.88;19.08;;;;;;;15.59;97.99;102340.47;4895844;29;20032;-66
2022/07/12 05:17:30;;;;;;;22.05;17.98;;;;;;;15.85;96.84;102350.66;4896515;29;20036;-66
2022/07/12 05:19:55;;;;;;;20.65;17.33;;;;;;;15.93;96.28;102352.38;4896478;29;20036;-66
2022/07/12 05:22:21;;;;;;;19.25;14.95;;;;;;;15.94;95.65;102356.72;4896487;29;20040;-66
2022/07/12 05:24:46;;;;;;;18.67;14.60;;;;;;;15.99;95.79;102360.50;4896492;29;20111;-66
2022/07/12 05:27:12;;;;;;;18.50;13.80;;;;;;;16.06;95.69;102362.38;4896232;29;20138;-66
2022/07/12 05:29:37;;;;;;;19.63;14.52;;;;;;;16.10;95.82;102367.19;4896348;29;20040;-66
2022/07/12 05:32:03;;;;;;;19.45;15.32;;;;;;;16.17;95.45;102372.63;4896154;29;20051;-66
2022/07/12 05:34:28;;;;;;;17.83;13.50;;;;;;;16.21;95.45;102358.56;4895990;29;20389;-66
2022/07/12 05:36:54;;;;;;;17.38;12.30;;;;;;;16.29;95.32;102368.34;4896272;29;20111;-66
2022/07/12 05:39:19;;;;;;;19.30;12.77;;;;;;;16.32;95.36;102376.06;4896250;29;20166;-66
2022/07/12 05:41:46;;;;;;;16.10;10.98;;;;;;;16.41;95.54;102368.66;4896168;29;20040;-66
2022/07/12 05:44:12;;;;;;;17.38;11.20;;;;;;;16.50;95.31;102375.50;4896198;29;20111;-65
2022/07/12 05:46:37;;;;;;;14.80;11.02;;;;;;;16.59;95.04;102381.59;4896109;29;20143;-66
2022/07/12 05:49:03;;;;;;;14.20;10.93;;;;;;;16.62;95.18;102382.00;4895485;29;20060;-66
2022/07/12 05:54:12;;;;;;;14.70;9.90;;;;;;;16.86;94.60;102396.03;4896152;29;20094;-65
2022/07/12 05:56:37;;;;;;;15.82;10.20;;;;;;;16.86;94.27;102387.97;4895942;29;20484;-66
2022/07/12 05:59:02;;;;;;;13.32;9.40;;;;;;;16.97;94.61;102405.41;4895556;29;20684;-66
2022/07/12 06:01:28;;;;;;;12.93;9.07;;;;;;;17.00;94.38;102411.25;4895811;29;20081;-66
2022/07/12 06:03:54;;;;;;;15.77;10.60;;;;;;;17.02;95.36;102416.44;4895578;29;20497;-66
2022/07/12 06:06:19;;;;;;;13.60;9.10;;;;;;;17.14;95.55;102408.63;4895605;29;20051;-66
2022/07/12 06:08:44;;;;;;;13.38;9.63;;;;;;;17.46;93.56;102415.13;4895749;29;20112;-66
2022/07/12 06:11:10;;;;;;;14.35;10.00;;;;;;;17.67;92.23;102414.13;4895648;29;20040;-66
2022/07/12 06:13:35;;;;;;;14.85;9.95;;;;;;;17.90;91.16;102416.47;4895485;29;20060;-67
2022/07/12 06:16:00;;;;;;;14.38;9.52;;;;;;;18.10;89.99;102419.16;4895434;29;20477;-67
2022/07/12 06:18:26;;;;;;;15.35;9.05;;;;;;;18.15;89.94;102427.47;4878771;29;20095;-66
2022/07/12 06:20:51;;;;;;;15.23;9.25;;;;;;;18.13;91.03;102426.81;4895256;29;20064;-66
2022/07/12 06:23:17;;;;;;;13.75;9.13;;;;;;;18.09;90.16;102423.72;4895246;29;20460;-66
2022/07/12 06:25:43;;;;;;;12.25;8.60;;;;;;;18.07;90.35;102423.09;4895411;29;20033;-65
2022/07/12 06:28:08;;;;;;;11.73;8.50;;;;;;;18.12;89.69;102417.91;4895154;29;20040;-67
2022/07/12 06:30:34;;;;;;;13.75;9.02;;;;;;;18.20;90.16;102429.53;4878445;29;20530;-67
2022/07/12 06:32:59;;;;;;;13.30;8.10;;;;;;;18.27;90.11;102425.78;4895111;29;20036;-67
2022/07/12 06:35:25;;;;;;;14.45;9.32;;;;;;;18.31;89.98;102420.78;4895094;29;20136;-67
2022/07/12 06:37:50;;;;;;;15.38;10.57;;;;;;;18.30;89.79;102417.28;4895083;29;20045;-67
2022/07/12 06:40:17;;;;;;;14.55;10.73;;;;;;;18.33;90.16;102416.03;4894911;29;20587;-67
2022/07/12 06:42:43;;;;;;;15.95;11.20;;;;;;;18.35;89.49;102413.94;4894991;29;20040;-67
2022/07/12 06:45:09;;;;;;;16.38;10.43;;;;;;;18.40;90.25;102420.38;4895004;29;20557;-67
2022/07/12 06:47:34;;;;;;;15.98;11.02;;;;;;;18.43;90.04;102412.91;4894936;29;20396;-67
2022/07/12 06:50:00;;;;;;;14.93;11.25;;;;;;;18.43;89.64;102424.53;4894528;29;20024;-67
2022/07/12 06:52:25;;;;;;;16.90;12.38;;;;;;;18.49;89.43;102417.44;4894867;29;20036;-66
2022/07/12 06:54:50;;;;;;;19.50;12.48;;;;;;;18.54;88.93;102414.94;4894252;29;20035;-67
2022/07/12 06:57:16;;;;;;;14.82;10.65;;;;;;;18.65;89.59;102422.38;4877901;29;20119;-67
2022/07/12 06:59:41;;;;;;;18.65;11.43;;;;;;;18.75;89.45;102419.28;4894814;29;20123;-67
2022/07/12 07:02:06;;;;;;;19.08;12.65;;;;;;;18.83;89.02;102419.88;4894737;29;20119;-67
2022/07/12 07:04:32;;;;;;;16.70;12.18;;;;;;;18.86;87.27;102425.91;4894695;29;20137;-67
2022/07/12 07:06:57;;;;;;;15.48;10.57;;;;;;;18.84;86.95;102420.72;4894631;29;20123;-67
2022/07/12 07:09:23;;;;;;;15.93;11.98;;;;;;;18.92;88.11;102417.78;4894606;29;20035;-67
2022/07/12 07:11:48;;;;;;;15.70;10.82;;;;;;;18.97;86.29;102414.44;4894705;29;20036;-67
2022/07/12 07:14:14;;;;;;;16.25;11.77;;;;;;;19.08;86.58;102421.88;4894612;29;20040;-71
2022/07/12 07:16:39;;;;;;;17.25;12.18;;;;;;;19.15;85.95;102417.28;4894407;29;20036;-68
2022/07/12 07:19:05;;;;;;;16.73;11.68;;;;;;;19.24;85.89;102415.97;4894516;29;20040;-67
2022/07/12 07:21:31;;;;;;;14.25;10.15;;;;;;;19.33;85.55;102419.22;4894383;29;20037;-68
2022/07/12 07:23:56;;;;;;;18.45;11.25;;;;;;;19.41;84.23;102419.00;4877333;29;20199;-68
2022/07/12 07:26:22;;;;;;;16.35;11.43;;;;;;;19.48;83.36;102413.53;4894136;29;20043;-68
2022/07/12 07:31:36;;;;;;;16.92;11.55;;;;;;;19.62;83.62;102412.41;4894583;29;20060;-68
2022/07/12 07:34:02;;;;;;;13.60;10.20;;;;;;;19.70;82.35;102424.84;4894285;29;20033;-68
2022/07/12 07:36:27;;;;;;;13.48;10.30;;;;;;;19.76;81.60;102417.75;4877187;29;20036;-68
2022/07/12 07:38:53;;;;;;;15.55;11.35;;;;;;;19.80;82.18;102417.09;4876606;29;20037;-68
2022/07/12 07:41:18;;;;;;;15.25;10.65;;;;;;;19.87;81.08;102414.34;4861592;29;20044;-68
2022/07/12 07:43:44;;;;;;;15.07;10.73;;;;;;;19.97;81.41;102414.66;4894057;29;20051;-68
2022/07/12 07:46:09;;;;;;;14.77;9.93;;;;;;;20.13;81.89;102407.88;4861945;29;20087;-69
2022/07/12 07:48:35;;;;;;;17.63;10.93;;;;;;;20.31;81.81;102413.31;4893986;29;20989;-68
2022/07/12 07:51:00;;;;;;;14.30;9.70;;;;;;;20.49;80.37;102417.13;4877268;29;20036;-67
2022/07/12 07:53:26;;;;;;;17.95;11.35;;;;;;;20.66;81.77;102417.38;4894051;29;20033;-68
2022/07/12 07:55:51;;;;;;;18.73;11.57;;;;;;;20.75;79.52;102418.72;4877396;29;20531;-68
2022/07/12 07:58:17;;;;;;;15.35;10.88;;;;;;;20.85;78.76;102412.75;4893877;29;20147;-67
2022/07/12 08:00:42;;;;;;;14.90;9.88;;;;;;;21.00;79.64;102402.34;4893911;29;20048;-67
2022/07/12 08:03:08;;;;;;;15.20;9.75;;;;;;;21.19;79.08;102411.28;4877234;29;20580;-67
2022/07/12 08:05:33;;;;;;;17.73;11.27;;;;;;;21.38;77.71;102402.06;4893944;29;20040;-68
2022/07/12 08:07:58;;;;;;;17.52;10.45;;;;;;;21.60;76.99;102406.97;4893418;29;20981;-68
2022/07/12 08:10:25;;;;;;;13.23;9.00;;;;;;;21.76;74.77;102411.72;4893800;29;20082;-68
2022/07/12 08:12:50;;;;;;;13.98;9.98;;;;;;;;;;4893657;29;20037;-68
2022/07/12 08:15:16;;;;;;;13.80;9.27;;;;;;;21.91;73.36;102413.16;4876907;29;20107;-68
2022/07/12 08:17:41;;;;;;;14.43;10.05;;;;;;;22.27;73.47;102407.53;4893368;29;20284;-68
2022/07/12 08:20:07;;;;;;;14.73;10.77;;;;;;;22.99;70.45;102414.53;4893782;29;20107;-68
2022/07/12 08:22:32;;;;;;;11.18;8.25;;;;;;;23.59;67.09;102403.09;4893840;29;20104;-68
2022/07/12 08:24:58;;;;;;;18.17;8.93;;;;;;;24.17;63.23;102414.69;4893679;29;20035;-67
2022/07/12 08:27:24;;;;;;;14.07;8.60;;;;;;;24.57;61.37;102410.09;4876716;29;20040;-68
2022/07/12 08:29:50;;;;;;;12.70;8.45;;;;;;;24.79;59.51;102407.38;4894222;29;20120;-68
2022/07/12 08:32:15;;;;;;;11.43;7.95;;;;;;;25.11;59.93;102407.47;4893338;29;20116;-68
2022/07/12 08:34:41;;;;;;;10.80;7.57;;;;;;;25.39;59.56;102400.09;4893680;29;20170;-67
2022/07/12 08:37:06;;;;;;;11.80;8.23;;;;;;;25.59;57.15;102412.06;4893617;29;20039;-68
2022/07/12 08:39:32;;;;;;;13.77;8.98;;;;;;;25.62;57.40;102423.56;4876921;29;20047;-68
2022/07/12 08:41:57;;;;;;;18.52;8.82;;;;;;;25.68;57.24;102415.16;4893671;29;20084;-68
2022/07/12 08:44:22;;;;;;;13.48;8.02;;;;;;;26.06;56.30;102418.75;4893763;29;20037;-68
2022/07/12 08:46:48;;;;;;;13.65;8.18;;;;;;;26.63;54.11;102419.94;4893756;29;20456;-68
2022/07/12 08:49:13;;;;;;;10.18;7.47;;;;;;;27.24;52.71;102422.06;4893679;29;20084;-68
2022/07/12 08:51:39;;;;;;;12.23;8.32;;;;;;;27.64;50.94;102420.44;4896562;29;20056;-68
2022/07/12 08:54:06;;;;;;;12.52;8.55;;;;;;;28.12;49.77;102424.56;4897092;29;20032;-68
2022/07/12 08:56:34;;;;;;;12.38;8.98;;;;;;;28.60;47.57;102422.25;4884913;29;20083;-69
2022/07/12 08:59:16;;;;;;;8.10;6.65;;;;;;;29.28;49.66;102421.66;4896732;29;20048;-68
2022/07/12 09:01:50;;;;;;;11.55;7.35;;;;;;;29.47;44.13;102423.72;4879951;29;20040;-68
2022/07/12 09:04:18;;;;;;;7.60;6.03;;;;;;;29.35;44.03;102432.34;4896791;29;20052;-68
2022/07/12 09:06:43;;;;;;;10.40;6.28;;;;;;;29.48;43.07;102428.13;4896845;29;20032;-68
2022/07/12 09:09:09;;;;;;;9.05;6.70;;;;;;;28.82;45.04;102432.06;4896728;29;20092;-74
2022/07/12 09:11:36;;;;;;;10.63;7.57;;;;;;;27.75;47.71;102430.34;4896766;29;20033;-73
2022/07/12 09:14:02;;;;;;;9.93;7.53;;;;;;;26.95;50.37;102427.97;4896623;29;20503;-74
2022/07/12 09:16:28;;;;;;;10.50;7.00;;;;;;;26.27;50.66;102425.16;4896618;29;20036;-74
2022/07/12 09:19:13;;;;;;;11.57;7.75;;;;;;;25.74;53.92;102426.94;4896563;29;20037;-74
2022/07/12 09:21:46;;;;;;;10.02;7.18;;;;;;;25.33;55.68;102427.38;4896582;29;20118;-74
2022/07/12 09:24:12;;;;;;;9.60;7.53;;;;;;;25.06;54.65;102421.88;4896370;29;20476;-74
2022/07/12 09:26:37;;;;;;;9.52;6.47;;;;;;;25.03;57.26;102421.56;4896353;29;20051;-74
2022/07/12 09:29:07;;;;;;;10.02;7.18;;;;;;;24.94;55.41;102423.91;4895856;29;20452;-72
2022/07/12 09:36:05;;;;;;;10.65;6.75;;;;;;;24.85;57.94;102412.63;4896307;29;20047;-75
2022/07/12 09:37:09;;;;;;;11.90;6.70;;;;;;;24.72;55.78;102415.75;4896329;29;20044;-75
2022/07/12 09:39:35;;;;;;;9.10;6.00;;;;;;;24.70;56.02;102418.72;4896124;29;20028;-75
2022/07/12 09:42:01;;;;;;;7.68;5.65;;;;;;;24.62;55.50;102416.44;4896240;29;20088;-75
2022/07/12 09:44:30;;;;;;;9.23;6.82;;;;;;;24.62;57.64;102412.88;4896105;29;20119;-75
2022/07/12 09:46:59;;;;;;;9.05;6.50;;;;;;;24.58;55.40;102418.03;4896150;29;20024;-74
2022/07/12 09:49:26;;;;;;;9.30;7.00;;;;;;;24.58;55.80;102409.03;4896069;29;20040;-74
2022/07/12 09:51:56;;;;;;;10.95;6.80;;;;;;;24.61;57.81;102401.16;4896010;29;20416;-74
2022/07/12 09:54:27;;;;;;;11.40;7.30;;;;;;;24.61;55.59;102403.06;4896008;29;20468;-74
2022/07/12 09:57:02;;;;;;;11.63;7.35;;;;;;;24.55;56.80;102393.13;4895986;29;20032;-74
2022/07/12 09:59:29;;;;;;;5.95;5.03;;;;;;;24.71;57.51;102395.00;4878921;29;20048;-75
2022/07/12 10:01:59;;;;;;;8.07;4.32;;;;;;;24.86;56.03;102399.81;4895469;29;20048;-75
2022/07/12 10:04:32;;;;;;;10.38;5.43;;;;;;;24.97;55.97;102400.75;4895580;29;20725;-75
2022/07/12 10:06:58;;;;;;;9.05;5.20;;;;;;;24.95;54.18;102394.72;4895766;29;20036;-75
2022/07/12 10:09:25;;;;;;;6.78;3.90;;;;;;;24.95;52.92;102395.56;4895539;29;20031;-75
2022/07/12 10:11:52;;;;;;;7.10;4.43;;;;;;;25.06;53.66;102391.84;4895702;29;20455;-74
2022/07/12 10:14:19;;;;;;;7.65;4.88;;;;;;;25.04;53.37;102390.44;4895640;29;20036;-75
2022/07/12 10:16:45;;;;;;;8.45;6.13;;;;;;;25.10;53.54;102389.44;4895615;29;20044;-74
2022/07/12 10:19:35;;;;;;;7.07;4.47;;;;;;;25.10;54.89;102384.81;4895261;29;20521;-74
2022/07/12 10:22:02;;;;;;;11.50;5.90;;;;;;;25.08;52.98;102386.13;4895334;29;20048;-74
2022/07/12 10:24:33;;;;;;;10.13;6.22;;;;;;;25.17;56.09;102381.88;4895483;29;20021;-74
2022/07/12 10:27:13;;;;;;;10.20;6.88;;;;;;;25.41;55.22;102384.28;4895397;29;20056;-74
2022/07/12 10:29:49;;;;;;;10.63;6.53;;;;;;;25.59;56.68;102376.53;4895248;29;20465;-75
2022/07/12 10:32:25;;;;;;;10.10;6.25;;;;;;;25.71;54.56;102368.16;4895372;29;20056;-74
2022/07/12 10:35:00;;;;;;;10.35;6.38;;;;;;;25.87;54.65;102377.31;4895162;29;20464;-74
2022/07/12 10:37:26;;;;;;;6.65;4.95;;;;;;;25.94;53.76;102380.66;4895379;29;20033;-74
2022/07/12 10:40:17;;;;;;;10.65;5.57;;;;;;;25.90;50.98;102384.19;4895135;29;20044;-74
2022/07/12 10:43:04;;;;;;;6.20;4.13;;;;;;;25.83;53.01;102375.34;4895162;29;20028;-74
2022/07/12 10:45:40;;;;;;;6.43;4.22;;;;;;;25.93;51.39;102375.44;4895103;29;20028;-75
2022/07/12 10:48:22;;;;;;;8.52;4.63;;;;;;;26.06;52.29;102374.16;4894591;29;20040;-75
2022/07/12 10:50:57;;;;;;;6.68;4.32;;;;;;;26.18;52.68;102372.88;4895092;29;20425;-76
2022/07/12 10:53:37;;;;;;;11.63;6.15;;;;;;;26.24;50.92;102374.53;4894915;29;20481;-76
2022/07/12 10:56:19;;;;;;;17.77;7.85;;;;;;;26.24;50.86;102371.00;4894754;29;20040;-75
2022/07/12 10:58:44;;;;;;;8.98;5.82;;;;;;;26.19;50.45;102366.31;4894899;29;20041;-75
2022/07/12 11:01:32;;;;;;;8.25;4.10;;;;;;;26.20;51.82;102375.38;4894813;29;20443;-76
2022/07/12 11:04:09;;;;;;;8.65;4.00;;;;;;;26.31;51.55;102370.78;4893865;29;20064;-75
2022/07/12 11:06:40;;;;;;;4.60;3.17;;;;;;;26.36;50.74;102377.09;4894811;29;20040;-75
2022/07/12 11:09:10;;;;;;;7.03;3.08;;;;;;;26.45;49.68;102377.38;4894813;29;20053;-75
2022/07/12 11:11:48;;;;;;;7.15;3.55;;;;;;;26.56;50.17;102381.03;4894765;29;20380;-76
2022/07/12 11:14:21;;;;;;;7.47;3.25;;;;;;;26.69;49.20;102379.72;4894172;29;20025;-76
2022/07/12 11:16:49;;;;;;;8.52;4.40;;;;;;;26.79;51.10;102377.81;4894418;29;20036;-76
2022/07/12 11:19:15;;;;;;;7.68;5.00;;;;;;;26.91;48.97;102379.50;4894559;29;20040;-76
2022/07/12 11:21:48;;;;;;;7.35;4.35;;;;;;;26.99;49.06;102382.53;4894580;29;20037;-76
2022/07/12 11:24:19;;;;;;;10.10;5.45;;;;;;;26.97;50.94;102378.44;4877604;29;20160;-75
2022/07/12 11:26:44;;;;;;;9.38;5.72;;;;;;;26.98;50.95;102378.13;4894530;29;20384;-75